Weather reports worldwide

Advertisment
Leuchtturm Alte Weser, Germany (10124): temperature & dewpoint: 14.08.2019 06:00:00 - 20.08.2019 06:00:00 (CEST)Leuchtturm Alte Weser, Germany (10124): wind speed & gusts: 14.08.2019 06:00:00 - 20.08.2019 06:00:00 (CEST)Leuchtturm Alte Weser, Germany (10124): wind direction: 14.08.2019 06:00:00 - 20.08.2019 06:00:00 (CEST)Leuchtturm Alte Weser, Germany (10124): reduced air pressure: 14.08.2019 06:00:00 - 20.08.2019 06:00:00 (CEST)Leuchtturm Alte Weser, Germany (10124): sunshine duration: 14.08.2019 06:00:00 - 20.08.2019 06:00:00 (CEST)
Date & Time tt [°C] td [°C] ff [km/h] ff [kn] fx [km/h] fx [kn] dd ppp [hPa] sd [min]
20.08.2019 06:00:00 14,6 12,2 36 19 - - SW 1016,9 0
20.08.2019 05:00:00 15,1 12,3 36 19 - - SW 1016,8 0
20.08.2019 04:00:00 15,7 12,2 36 19 - - SSW 1016,7 0
20.08.2019 03:00:00 16,0 13,0 29 16 - - SW 1016,7 0
20.08.2019 02:00:00 16,4 12,6 29 16 - - SW 1016,6 0
20.08.2019 01:00:00 17,1 12,8 29 16 - - SW 1016,6 0
20.08.2019 00:00:00 17,9 12,2 29 16 - - SW 1016,4 0
19.08.2019 23:00:00 17,5 14,1 18 10 - - S 1016,1 0
19.08.2019 22:00:00 17,6 14,0 14 8 - - SW 1016,1 0
19.08.2019 21:00:00 17,7 12,9 22 12 50 27 SW 1015,8 6
19.08.2019 20:00:00 17,3 10,4 32 18 - - WSW 1015,3 6
19.08.2019 19:00:00 18,0 11,4 40 21 58 31 W 1014,6 30
19.08.2019 18:00:00 18,9 11,5 40 21 68 37 WSW 1014,3 30
19.08.2019 17:00:00 18,1 13,1 32 18 - - W 1013,9 12
19.08.2019 16:00:00 18,6 12,7 32 18 47 25 WSW 1013,6 18
19.08.2019 15:00:00 17,7 12,5 29 16 61 33 WSW 1013,4 6
19.08.2019 14:00:00 17,8 13,5 29 16 - - W 1012,7 36
19.08.2019 13:00:00 18,0 12,3 40 21 47 25 SW 1012,1 48
19.08.2019 12:00:00 17,2 12,8 40 21 50 27 SW 1011,7 60
19.08.2019 11:00:00 16,5 13,0 40 21 - - SW 1011,1 60
19.08.2019 10:00:00 15,8 13,9 43 23 50 27 SW 1010,5 60
19.08.2019 09:00:00 14,7 13,5 43 23 50 27 SSW 1010,2 54
19.08.2019 08:00:00 14,5 13,3 40 21 - - SW 1009,8 36
19.08.2019 07:00:00 14,9 13,6 43 23 58 31 SW 1009,0 0
19.08.2019 06:00:00 15,3 13,5 43 23 50 27 SSW 1008,4 0
19.08.2019 05:00:00 15,7 14,5 36 19 - - SW 1008,4 0
19.08.2019 04:00:00 15,8 14,4 36 19 - - SSW 1008,2 0
19.08.2019 03:00:00 16,3 14,5 32 18 - - SW 1008,0 0
19.08.2019 02:00:00 16,7 14,7 29 16 - - SW 1007,8 0
19.08.2019 01:00:00 17,2 14,6 29 16 - - SW 1007,5 0
19.08.2019 00:00:00 17,0 14,8 29 16 - - SW 1007,5 0
18.08.2019 23:00:00 17,3 14,8 29 16 - - SW 1007,4 0
18.08.2019 22:00:00 17,9 14,4 29 16 - - SW 1006,8 0
18.08.2019 21:00:00 17,9 14,6 22 12 - - SW 1006,0 12
18.08.2019 20:00:00 17,6 14,6 22 12 - - WSW 1005,5 36
18.08.2019 19:00:00 17,0 14,4 22 12 47 25 W 1005,3 0
18.08.2019 18:00:00 16,9 14,8 29 16 47 25 W 1004,9 0
18.08.2019 17:00:00 18,1 13,5 29 16 - - SW 1004,4 0
18.08.2019 16:00:00 17,5 14,1 25 14 - - SW 1004,0 6
18.08.2019 15:00:00 16,6 14,4 25 14 - - SSW 1003,6 0
18.08.2019 14:00:00 16,3 13,0 36 19 - - SSW 1003,9 0
18.08.2019 13:00:00 16,4 13,9 29 16 - - S 1003,8 0
18.08.2019 12:00:00 16,4 13,6 29 16 - - S 1004,0 0
18.08.2019 11:00:00 16,2 12,2 36 19 - - S 1003,6 0
18.08.2019 10:00:00 16,0 15,2 32 18 - - S 1004,0 0
18.08.2019 09:00:00 16,1 15,2 29 16 - - SSW 1004,1 0
18.08.2019 08:00:00 16,4 15,2 25 14 - - SSW 1004,3 0
18.08.2019 07:00:00 16,2 15,7 25 14 - - S 1004,6 0
18.08.2019 06:00:00 16,5 16,0 29 16 - - SSW 1004,8 0
18.08.2019 05:00:00 16,5 16,2 22 12 - - SSW 1004,5 0
18.08.2019 04:00:00 16,7 16,7 22 12 - - SW 1005,2 0
18.08.2019 03:00:00 16,9 16,3 22 12 - - SW 1005,4 0
18.08.2019 02:00:00 17,0 16,6 25 14 - - SW 1005,6 0
18.08.2019 01:00:00 17,0 16,6 29 16 - - SW 1005,4 0
18.08.2019 00:00:00 17,3 16,5 25 14 - - SW 1005,3 0
17.08.2019 23:00:00 17,5 16,4 29 16 - - SW 1005,4 0
17.08.2019 22:00:00 17,8 16,8 29 16 - - SSW 1005,2 0
17.08.2019 21:00:00 18,7 17,2 36 19 47 25 SSW 1004,8 0
17.08.2019 20:00:00 18,7 15,4 4 2 - - SW 1005,2 0
17.08.2019 19:00:00 18,9 15,0 14 8 - - WNW 1005,4 0
17.08.2019 18:00:00 18,7 16,8 18 10 - - W 1005,4 0
17.08.2019 17:00:00 19,7 17,1 40 21 - - S 1004,8 30
17.08.2019 16:00:00 19,2 17,0 32 18 - - S 1004,9 30
17.08.2019 15:00:00 18,7 16,7 40 21 47 25 SSW 1005,1 12
17.08.2019 14:00:00 18,4 16,7 40 21 - - SW 1005,0 0
17.08.2019 13:00:00 17,5 16,9 40 21 50 27 SSW 1005,0 0
17.08.2019 12:00:00 17,5 16,1 40 21 50 27 SSW 1004,8 0
17.08.2019 11:00:00 17,6 15,4 43 23 - - SSW 1004,5 0
17.08.2019 10:00:00 17,6 14,9 40 21 54 29 SSW 1004,8 0
17.08.2019 09:00:00 17,0 14,8 43 23 58 31 SSW 1004,8 0
17.08.2019 08:00:00 16,6 15,0 43 23 - - SSW 1004,8 0
17.08.2019 07:00:00 17,0 14,8 36 19 50 27 S 1005,2 0
17.08.2019 06:00:00 16,9 15,0 40 21 50 27 S 1005,5 0
17.08.2019 05:00:00 17,2 14,5 43 23 - - S 1006,2 0
17.08.2019 04:00:00 17,5 14,2 36 19 50 27 S 1007,0 0
17.08.2019 03:00:00 17,9 14,3 43 23 50 27 S 1007,8 0
17.08.2019 02:00:00 18,2 14,0 25 14 - - S 1008,6 0
17.08.2019 01:00:00 18,8 14,2 29 16 - - S 1009,3 0
17.08.2019 00:00:00 18,8 14,5 29 16 - - S 1010,1 0
16.08.2019 23:00:00 19,2 13,4 25 14 - - S 1010,6 0
16.08.2019 22:00:00 19,2 14,7 22 12 - - S 1011,3 0
16.08.2019 21:00:00 19,4 14,2 22 12 - - S 1011,5 0
16.08.2019 20:00:00 19,6 12,5 18 10 - - S 1011,7 0
16.08.2019 19:00:00 19,5 13,0 11 6 - - S 1012,2 0
16.08.2019 18:00:00 18,5 12,8 11 6 - - E 1012,7 6
16.08.2019 17:00:00 19,3 12,6 4 2 - - ESE 1013,4 24
16.08.2019 16:00:00 18,3 12,4 7 4 - - SE 1013,8 12
16.08.2019 15:00:00 18,5 12,1 4 2 - - S 1014,2 12
16.08.2019 14:00:00 17,7 11,0 4 2 - - WSW 1014,6 54
16.08.2019 13:00:00 17,4 11,3 11 6 - - W 1014,8 60
16.08.2019 12:00:00 17,2 11,0 18 10 - - W 1014,8 60
16.08.2019 11:00:00 17,1 11,3 22 12 - - W 1014,8 54
16.08.2019 10:00:00 17,2 10,7 25 14 - - W 1014,6 54
16.08.2019 09:00:00 17,2 10,9 32 18 - - WNW 1014,2 54
16.08.2019 08:00:00 17,2 10,9 36 19 - - WNW 1013,9 54
16.08.2019 07:00:00 17,1 11,9 36 19 50 27 WNW 1013,3 6
16.08.2019 06:00:00 17,3 13,6 32 18 - - WNW 1012,6 0
16.08.2019 05:00:00 17,0 14,3 29 16 - - WNW 1012,2 0
16.08.2019 04:00:00 17,4 14,5 36 19 47 25 WNW 1011,7 0
16.08.2019 03:00:00 17,9 14,4 32 18 54 29 WNW 1011,4 0
16.08.2019 02:00:00 17,9 14,9 40 21 - - W 1011,1 0
16.08.2019 01:00:00 18,1 15,0 40 21 50 27 W 1011,0 0
16.08.2019 00:00:00 17,8 14,4 47 25 54 29 W 1010,5 0
15.08.2019 23:00:00 18,1 14,9 40 21 - - W 1010,1 0
15.08.2019 22:00:00 18,2 14,8 40 21 47 25 W 1009,6 0
15.08.2019 21:00:00 18,2 14,6 40 21 50 27 W 1008,8 0
15.08.2019 20:00:00 18,3 15,1 36 19 - - W 1008,3 12
15.08.2019 19:00:00 18,3 14,9 43 23 54 29 W 1007,7 48
15.08.2019 18:00:00 18,4 14,7 47 25 61 33 W 1007,2 24
15.08.2019 17:00:00 18,3 14,4 50 27 - - W 1006,4 48
15.08.2019 16:00:00 18,3 15,5 50 27 58 31 W 1005,6 30
15.08.2019 15:00:00 17,6 16,6 43 23 54 29 SW 1005,3 0
15.08.2019 14:00:00 18,0 16,9 32 18 - - SSW 1005,3 6
15.08.2019 13:00:00 17,4 16,5 36 19 - - SSW 1004,9 0
15.08.2019 12:00:00 17,0 16,1 32 18 - - S 1005,0 0
15.08.2019 11:00:00 16,6 15,7 36 19 - - SSW 1005,4 0
15.08.2019 10:00:00 16,0 15,5 40 21 47 25 S 1005,3 0
15.08.2019 09:00:00 15,6 15,6 40 21 47 25 S 1005,8 0
15.08.2019 08:00:00 14,9 14,7 40 21 - - S 1005,9 0
15.08.2019 07:00:00 14,9 14,3 47 25 58 31 S 1006,4 0
15.08.2019 06:00:00 14,5 14,0 43 23 54 29 SSE 1007,0 0
15.08.2019 05:00:00 15,0 13,2 40 21 - - S 1007,9 0
15.08.2019 04:00:00 15,8 12,3 25 14 - - S 1009,2 0
15.08.2019 03:00:00 16,6 12,3 29 16 - - S 1010,1 0
15.08.2019 02:00:00 16,3 12,3 25 14 - - SSW 1011,3 0
15.08.2019 01:00:00 17,0 12,1 29 16 58 31 SSW 1011,8 0
15.08.2019 00:00:00 17,8 11,7 32 18 - - SSE 1011,9 0
14.08.2019 23:00:00 17,2 11,8 25 14 - - SE 1012,6 0
14.08.2019 22:00:00 17,2 12,4 22 12 - - SE 1013,2 0
14.08.2019 21:00:00 17,2 12,0 14 8 - - SE 1013,5 0
14.08.2019 20:00:00 17,2 10,3 4 2 - - SSE 1014,4 0
14.08.2019 19:00:00 17,1 11,0 4 2 - - SW 1014,7 0
14.08.2019 18:00:00 16,8 11,5 7 4 - - SW 1015,0 0
14.08.2019 17:00:00 16,5 12,0 7 4 - - SSW 1015,6 0
14.08.2019 16:00:00 17,0 11,0 4 2 - - WNW 1015,5 18
14.08.2019 15:00:00 16,7 11,0 14 8 - - SSW 1015,7 12
14.08.2019 14:00:00 16,9 9,5 18 10 - - SW 1015,9 60
14.08.2019 13:00:00 16,0 9,2 29 16 - - SW 1015,8 54
14.08.2019 12:00:00 16,7 7,2 32 18 61 33 W 1015,6 48
14.08.2019 11:00:00 15,9 9,0 40 21 - - WSW 1015,5 36
14.08.2019 10:00:00 15,6 7,1 43 23 68 37 WSW 1015,5 12
14.08.2019 09:00:00 13,9 10,7 50 27 68 37 WSW 1015,6 54
14.08.2019 08:00:00 13,5 11,8 32 18 - - SW 1015,3 42
14.08.2019 07:00:00 13,5 12,2 36 19 - - SW 1015,0 0
14.08.2019 06:00:00 14,3 11,7 40 21 50 27 WSW 1014,4 0

tt = temperature
td = dewpoint
ff = wind speed
fx = gusts
dd = wind direction
ppp = reduced air pressure
sd = sunshine duration

Next stations